Time;durP1;ratioP1;P1;durP2;ratioP2;P2;SDS_P1;SDS_P2;PMS_P1;PMS_P2;Temp;Humidity;BMP_temperature;BMP_pressure;BME280_temperature;BME280_humidity;BME280_pressure;Samples;Min_cycle;Max_cycle;Signal;HPM_P1;HPM_P2
2023/03/25 00:00:56;;;;;;;14.63;6.60;;;;;;;41.28;35.15;101001.72;4972865;28;20440;-80
2023/03/25 00:03:32;;;;;;;11.40;4.97;;;;;;;41.38;35.20;101010.72;4989010;28;20432;-79
2023/03/25 00:06:00;;;;;;;11.03;5.27;;;;;;;41.23;34.66;100985.59;5012665;28;20424;-81
2023/03/25 00:08:27;;;;;;;14.83;6.07;;;;;;;41.37;35.23;101004.44;4994073;28;20460;-82
2023/03/25 00:10:57;;;;;;;18.37;5.27;;;;;;;41.31;34.91;101011.16;4994587;28;20433;-82
2023/03/25 00:13:24;;;;;;;12.13;5.77;;;;;;;41.35;35.18;100995.81;4982141;28;20519;-82
2023/03/25 00:15:52;;;;;;;13.80;6.30;;;;;;;41.39;35.13;100995.97;5011060;28;20452;-82
2023/03/25 00:18:20;;;;;;;12.13;4.93;;;;;;;41.38;35.41;100984.28;4988633;28;20511;-82
2023/03/25 00:20:49;;;;;;;11.90;4.93;;;;;;;41.24;35.36;100970.84;4985544;28;20421;-82
2023/03/25 00:23:18;;;;;;;13.00;6.93;;;;;;;41.19;35.26;100962.06;4985423;28;20448;-81
2023/03/25 00:25:45;;;;;;;10.00;5.30;;;;;;;41.26;35.41;100955.00;4994727;28;20432;-80
2023/03/25 00:28:12;;;;;;;11.13;6.07;;;;;;;41.31;35.04;100957.53;5010362;28;20425;-80
2023/03/25 00:30:40;;;;;;;15.13;5.37;;;;;;;41.32;35.36;100958.34;4994574;28;20511;-81
2023/03/25 00:33:06;;;;;;;11.47;6.07;;;;;;;41.31;35.51;100952.09;4987261;28;20413;-80
2023/03/25 00:35:32;;;;;;;17.63;8.13;;;;;;;41.22;35.65;100942.38;4994000;28;20437;-80
2023/03/25 00:38:00;;;;;;;17.63;5.40;;;;;;;41.24;35.53;100945.53;4994467;28;20452;-80
2023/03/25 00:40:28;;;;;;;11.77;6.10;;;;;;;41.31;35.21;100935.78;4994922;28;20494;-80
2023/03/25 00:42:55;;;;;;;10.97;5.47;;;;;;;41.32;35.32;100922.94;4994582;28;20511;-79
2023/03/25 00:45:22;;;;;;;12.43;5.30;;;;;;;41.22;35.54;100909.69;4995227;28;20424;-79
2023/03/25 00:47:48;;;;;;;12.00;6.00;;;;;;;41.25;35.63;100912.59;4994713;28;20421;-80
2023/03/25 00:50:14;;;;;;;11.13;5.13;;;;;;;41.24;35.49;100907.44;4994998;28;20817;-82
2023/03/25 00:52:41;;;;;;;11.30;6.13;;;;;;;41.30;35.81;100897.97;4994137;28;20428;-82
2023/03/25 00:55:10;;;;;;;12.07;5.60;;;;;;;41.31;35.33;100894.94;4979467;28;20424;-83
2023/03/25 00:57:36;;;;;;;18.40;5.93;;;;;;;41.33;35.55;100895.44;4978457;28;20440;-83
2023/03/25 01:00:06;;;;;;;18.53;5.80;;;;;;;41.22;35.58;100893.38;4994432;28;20460;-81
2023/03/25 01:02:33;;;;;;;10.80;4.90;;;;;;;41.12;35.75;100889.09;5000211;28;20806;-82
2023/03/25 01:04:59;;;;;;;10.80;5.70;;;;;;;41.29;35.24;100896.38;4994982;28;20543;-82
2023/03/25 01:07:28;;;;;;;11.50;5.53;;;;;;;41.25;35.82;100887.25;4995014;28;20441;-82
2023/03/25 01:09:55;;;;;;;13.57;5.90;;;;;;;41.06;35.59;100863.97;4994856;28;20431;-81
2023/03/25 01:12:22;;;;;;;12.13;5.17;;;;;;;41.21;35.25;100889.06;4997578;28;20434;-83
2023/03/25 01:14:49;;;;;;;16.13;5.80;;;;;;;41.19;35.46;100880.41;5000172;28;20424;-81
2023/03/25 01:17:16;;;;;;;13.60;5.37;;;;;;;41.27;35.73;100883.09;5012470;28;20424;-80
2023/03/25 01:19:44;;;;;;;11.00;6.33;;;;;;;41.31;35.98;100877.78;4994360;28;20452;-82
2023/03/25 01:22:14;;;;;;;13.63;4.80;;;;;;;41.28;35.37;100870.28;4977019;28;20460;-82
2023/03/25 01:24:40;;;;;;;12.20;5.73;;;;;;;41.30;35.84;100871.53;4995191;28;20468;-82
2023/03/25 01:27:07;;;;;;;13.53;5.20;;;;;;;41.27;35.66;100863.25;4998392;28;20467;-82
2023/03/25 01:29:33;;;;;;;18.07;6.13;;;;;;;41.26;35.54;100861.66;4998451;28;20427;-82
2023/03/25 01:31:59;;;;;;;11.40;5.60;;;;;;;41.24;35.26;100863.91;5014517;28;21071;-81
2023/03/25 01:34:26;;;;;;;10.80;5.40;;;;;;;41.24;35.36;100867.41;4997934;28;21022;-82
2023/03/25 01:36:54;;;;;;;12.50;5.97;;;;;;;41.22;35.47;100858.78;4997617;28;20475;-82
2023/03/25 01:39:21;;;;;;;12.90;5.43;;;;;;;41.18;35.17;100846.94;4996102;28;20952;-80
2023/03/25 01:41:49;;;;;;;9.00;4.07;;;;;;;41.22;35.38;100853.34;4997450;28;20424;-80
2023/03/25 01:44:21;;;;;;;11.27;4.60;;;;;;;41.22;35.72;100855.28;4997620;28;20428;-81
2023/03/25 01:46:51;;;;;;;9.17;4.47;;;;;;;41.27;35.75;100847.72;5013172;28;20425;-80
2023/03/25 01:49:43;;;;;;;15.03;5.80;;;;;;;41.14;35.76;100847.97;4995200;28;20985;-81
2023/03/25 01:52:15;;;;;;;18.27;5.70;;;;;;;41.12;36.19;100851.00;4995011;28;20421;-82
2023/03/25 01:54:43;;;;;;;15.00;5.97;;;;;;;41.22;35.71;100850.63;4996599;28;20429;-81
2023/03/25 01:57:16;;;;;;;15.20;4.60;;;;;;;41.18;35.87;100846.94;4994919;28;20467;-80
2023/03/25 01:59:43;;;;;;;9.30;4.00;;;;;;;41.22;35.94;100860.72;4988230;28;20704;-80
2023/03/25 02:02:14;;;;;;;14.03;5.20;;;;;;;41.23;35.66;100854.13;4980798;28;20940;-80
2023/03/25 02:05:01;;;;;;;14.00;5.10;;;;;;;41.25;35.75;100851.88;4978593;28;20425;-81
2023/03/25 02:07:29;;;;;;;8.37;4.00;;;;;;;41.14;35.87;100840.59;4989117;28;20548;-81
2023/03/25 02:10:03;;;;;;;17.87;4.57;;;;;;;41.17;35.55;100837.19;4996589;28;20873;-80
2023/03/25 02:12:29;;;;;;;12.77;4.33;;;;;;;41.22;35.90;100837.00;4994766;28;20456;-80
2023/03/25 02:14:59;;;;;;;11.73;5.37;;;;;;;41.18;36.48;100843.44;4974718;28;20431;-80
2023/03/25 02:17:43;;;;;;;20.33;6.23;;;;;;;41.20;36.94;100857.53;4974668;28;20434;-80
2023/03/25 02:20:33;;;;;;;20.50;6.93;;;;;;;41.13;36.83;100849.06;4987942;28;20532;-79
2023/03/25 02:23:27;;;;;;;11.80;7.63;;;;;;;41.13;36.51;100855.34;4994252;28;20849;-80
2023/03/25 02:26:28;;;;;;;25.03;8.93;;;;;;;41.08;36.66;100847.34;5006469;28;20428;-80
2023/03/25 02:29:14;;;;;;;22.03;8.13;;;;;;;41.13;36.87;100857.22;4994193;28;20937;-80
2023/03/25 02:32:34;;;;;;;25.83;8.10;;;;;;;41.04;37.32;100846.41;4950182;28;20430;-80
2023/03/25 02:35:03;;;;;;;14.87;6.50;;;;;;;41.18;37.07;100848.88;4954726;28;20421;-81
2023/03/25 02:37:59;;;;;;;22.00;9.00;;;;;;;41.24;36.53;100859.25;5006207;28;20473;-80
2023/03/25 02:40:32;;;;;;;20.63;5.90;;;;;;;41.27;36.35;100865.97;5009955;28;20449;-80
2023/03/25 02:43:05;;;;;;;17.67;8.53;;;;;;;41.05;36.89;100843.34;4977420;28;20480;-80
2023/03/25 02:45:37;;;;;;;17.87;7.47;;;;;;;41.16;36.25;100875.63;4993581;28;20551;-80
2023/03/25 02:48:10;;;;;;;20.97;7.50;;;;;;;41.19;36.49;100883.94;4977697;28;20568;-81
2023/03/25 02:50:44;;;;;;;16.10;6.23;;;;;;;41.20;35.90;100882.03;4993553;28;20461;-81
2023/03/25 02:53:21;;;;;;;15.63;5.77;;;;;;;41.18;35.94;100889.69;4994855;28;20460;-82
2023/03/25 02:55:50;;;;;;;17.13;5.67;;;;;;;41.15;36.25;100874.84;4989835;28;20436;-80
2023/03/25 02:58:20;;;;;;;18.07;5.70;;;;;;;41.08;35.91;100874.56;4976359;28;20988;-79
2023/03/25 03:00:50;;;;;;;16.47;5.30;;;;;;;41.15;36.11;100872.13;4993920;28;20449;-80
2023/03/25 03:03:16;;;;;;;12.30;5.70;;;;;;;41.13;36.26;100868.13;4976609;28;20421;-83
2023/03/25 03:05:45;;;;;;;13.73;5.17;;;;;;;41.20;36.28;100871.94;4976151;28;20433;-82
2023/03/25 03:08:24;;;;;;;16.60;5.73;;;;;;;41.20;36.50;100862.97;5009479;28;20446;-82
2023/03/25 03:10:59;;;;;;;25.17;8.30;;;;;;;41.18;36.59;100865.22;5010053;28;20429;-82
2023/03/25 03:13:36;;;;;;;18.60;7.10;;;;;;;41.17;35.85;100864.41;5008836;28;20830;-83
2023/03/25 03:16:31;;;;;;;16.43;5.83;;;;;;;41.10;35.55;100866.84;5009524;28;20425;-83
2023/03/25 03:19:10;;;;;;;13.30;4.50;;;;;;;41.11;35.77;100863.00;4966092;28;20461;-82
2023/03/25 03:22:12;;;;;;;14.40;7.07;;;;;;;41.10;35.92;100866.84;5021393;28;20429;-82
2023/03/25 03:25:01;;;;;;;15.30;5.33;;;;;;;41.17;35.53;100871.78;5004594;28;20500;-81
2023/03/25 03:27:55;;;;;;;20.23;6.60;;;;;;;41.18;35.83;100866.00;4966458;28;20437;-81
2023/03/25 03:30:46;;;;;;;10.70;4.83;;;;;;;41.20;35.23;100873.88;4966355;28;20468;-82
2023/03/25 03:33:41;;;;;;;17.40;4.57;;;;;;;41.22;35.53;100871.59;4993503;28;20406;-80
2023/03/25 03:36:15;;;;;;;10.77;3.90;;;;;;;41.17;35.02;100867.13;4964567;28;20477;-80
2023/03/25 03:38:56;;;;;;;15.90;5.40;;;;;;;41.02;35.37;100867.72;4992294;28;20465;-80
2023/03/25 03:41:25;;;;;;;12.07;5.70;;;;;;;41.10;35.70;100858.69;4992468;28;20512;-82
2023/03/25 03:44:07;;;;;;;22.60;7.40;;;;;;;41.18;35.27;100868.72;4995673;28;20456;-81
2023/03/25 03:46:42;;;;;;;14.53;5.30;;;;;;;41.15;35.98;100863.94;4992073;28;20507;-82
2023/03/25 03:49:15;;;;;;;16.57;5.33;;;;;;;41.13;36.10;100851.78;4995438;28;20510;-81
2023/03/25 03:51:49;;;;;;;13.70;5.43;;;;;;;41.20;35.56;100858.31;5013521;28;20424;-82
2023/03/25 03:54:22;;;;;;;23.60;6.40;;;;;;;41.18;36.02;100860.56;4995059;28;20433;-80
2023/03/25 03:57:14;;;;;;;14.73;6.90;;;;;;;41.24;36.10;100864.69;4995721;28;20453;-80
2023/03/25 03:59:52;;;;;;;20.67;6.80;;;;;;;41.20;36.18;100871.13;4982977;28;20472;-79
2023/03/25 04:02:40;;;;;;;22.03;6.33;;;;;;;41.09;35.99;100862.53;5008786;28;20804;-80
2023/03/25 04:05:12;;;;;;;20.03;7.60;;;;;;;41.07;36.48;100860.16;4995522;28;20460;-81
2023/03/25 04:07:44;;;;;;;11.17;5.83;;;;;;;41.08;36.45;100871.84;4995502;28;20468;-80
2023/03/25 04:10:15;;;;;;;15.27;6.37;;;;;;;41.10;36.28;100864.13;4995464;28;20782;-81
2023/03/25 04:12:47;;;;;;;19.80;6.70;;;;;;;41.09;36.72;100873.44;5011737;28;20428;-79
2023/03/25 04:15:14;;;;;;;18.53;6.30;;;;;;;41.17;35.83;100877.22;4994970;28;20420;-82
2023/03/25 04:17:41;;;;;;;22.90;8.33;;;;;;;41.13;36.14;100877.09;4979844;28;20436;-81
2023/03/25 04:20:14;;;;;;;23.17;6.13;;;;;;;41.07;36.67;100876.50;4995652;28;20460;-80
2023/03/25 04:22:44;;;;;;;19.03;6.03;;;;;;;41.07;36.11;100868.31;5012695;28;20451;-80
2023/03/25 04:25:12;;;;;;;19.20;6.03;;;;;;;41.02;36.27;100879.38;4995371;28;21032;-80
2023/03/25 04:27:39;;;;;;;13.47;4.80;;;;;;;41.05;35.93;100869.75;4995358;28;20857;-80
2023/03/25 04:30:07;;;;;;;16.43;5.37;;;;;;;41.07;36.26;100881.13;5008890;28;20432;-80
2023/03/25 04:32:35;;;;;;;12.30;6.27;;;;;;;41.04;35.50;100882.56;4994740;28;20460;-80
2023/03/25 04:35:02;;;;;;;15.20;6.03;;;;;;;41.05;35.67;100889.59;4994972;28;20447;-80
2023/03/25 04:37:32;;;;;;;18.07;5.47;;;;;;;41.09;35.63;100889.75;4997530;28;20552;-80
2023/03/25 04:40:00;;;;;;;10.10;5.23;;;;;;;41.10;35.40;100890.56;4964919;28;21069;-81
2023/03/25 04:42:31;;;;;;;19.13;5.70;;;;;;;41.12;35.04;100891.81;4969913;28;20806;-81
2023/03/25 04:44:58;;;;;;;14.97;4.80;;;;;;;41.04;35.55;100881.78;4976210;28;20487;-80
2023/03/25 04:47:25;;;;;;;18.83;5.80;;;;;;;41.15;35.14;100876.75;4960489;28;20487;-79
2023/03/25 04:49:55;;;;;;;15.37;6.20;;;;;;;41.10;35.43;100885.91;4957453;28;21023;-84
2023/03/25 04:52:23;;;;;;;17.63;6.40;;;;;;;41.09;35.31;100884.31;4987236;28;20425;-84
2023/03/25 04:54:52;;;;;;;23.80;6.20;;;;;;;41.02;36.12;100892.19;4974602;28;20931;-84
2023/03/25 04:57:19;;;;;;;17.57;4.97;;;;;;;41.01;35.57;100887.88;4971334;28;20462;-84
2023/03/25 04:59:45;;;;;;;22.50;6.10;;;;;;;41.05;35.20;100891.53;4969150;28;20563;-83
2023/03/25 05:02:12;;;;;;;17.97;5.97;;;;;;;41.08;34.93;100893.59;4977995;28;20476;-84
2023/03/25 05:04:46;;;;;;;15.80;6.20;;;;;;;41.07;35.03;100897.47;5010833;28;20540;-83
2023/03/25 05:07:15;;;;;;;11.50;5.00;;;;;;;41.12;35.12;100891.00;4972993;28;20472;-83
2023/03/25 05:09:42;;;;;;;14.83;5.70;;;;;;;41.16;34.89;100884.59;4977571;28;20425;-84
2023/03/25 05:12:10;;;;;;;16.70;5.83;;;;;;;41.10;35.48;100875.03;4989600;28;20426;-84
2023/03/25 05:14:36;;;;;;;21.40;5.53;;;;;;;41.07;35.61;100876.50;4993504;28;20436;-85
2023/03/25 05:17:02;;;;;;;18.37;5.50;;;;;;;40.98;35.01;100872.19;4977285;28;20448;-84
2023/03/25 05:19:28;;;;;;;13.97;6.30;;;;;;;41.06;35.03;100883.03;4977124;28;20465;-84
2023/03/25 05:21:55;;;;;;;10.23;5.23;;;;;;;41.06;34.84;100884.94;4978323;28;20433;-83
2023/03/25 05:24:21;;;;;;;20.00;7.63;;;;;;;40.90;34.96;100882.00;4966596;28;20423;-83
2023/03/25 05:26:47;;;;;;;12.10;4.83;;;;;;;41.01;34.84;100880.53;5010578;28;20440;-82
2023/03/25 05:29:14;;;;;;;19.60;6.17;;;;;;;41.05;35.65;100883.38;4979101;28;20802;-82
2023/03/25 05:31:44;;;;;;;12.17;5.70;;;;;;;41.12;35.06;100883.66;4995534;28;20496;-82
2023/03/25 05:34:10;;;;;;;23.23;6.93;;;;;;;41.09;35.47;100887.03;5011646;28;20977;-81
2023/03/25 05:36:36;;;;;;;16.30;6.37;;;;;;;41.00;35.94;100894.44;4990580;28;20480;-83
2023/03/25 05:39:04;;;;;;;16.33;5.60;;;;;;;41.02;35.99;100900.34;5002921;28;20467;-83
2023/03/25 05:41:37;;;;;;;14.70;5.90;;;;;;;40.98;35.50;100902.13;4998553;28;20424;-82
2023/03/25 05:44:08;;;;;;;12.37;6.17;;;;;;;41.01;35.16;100898.78;4998005;28;20460;-81
2023/03/25 05:46:34;;;;;;;23.97;7.93;;;;;;;40.94;35.42;100909.34;5010667;28;20456;-80
2023/03/25 05:49:00;;;;;;;17.13;8.23;;;;;;;40.94;35.59;100912.06;4997891;28;20488;-80
2023/03/25 05:51:28;;;;;;;12.13;5.90;;;;;;;40.94;35.29;100907.41;5013932;28;20448;-81
2023/03/25 05:53:54;;;;;;;23.50;6.97;;;;;;;40.98;35.00;100910.28;4997666;28;20465;-81
2023/03/25 05:56:23;;;;;;;21.73;6.07;;;;;;;40.90;35.05;100903.75;4997727;28;20494;-80
2023/03/25 05:58:51;;;;;;;15.77;9.70;;;;;;;40.96;35.36;100909.81;4997861;28;20464;-81
2023/03/25 06:01:18;;;;;;;26.03;9.30;;;;;;;40.97;34.84;100905.97;4997986;28;20805;-82
2023/03/25 06:03:45;;;;;;;22.33;8.30;;;;;;;40.90;34.91;100913.81;4990484;28;20429;-80
2023/03/25 06:06:18;;;;;;;22.87;8.03;;;;;;;40.95;35.14;100913.69;4980289;28;20432;-79
2023/03/25 06:08:49;;;;;;;21.07;7.80;;;;;;;40.99;34.91;100918.13;4983387;28;21038;-81
2023/03/25 06:11:17;;;;;;;24.00;9.30;;;;;;;41.06;35.13;100920.34;4992609;28;20425;-81
2023/03/25 06:13:50;;;;;;;25.83;8.20;;;;;;;41.04;34.69;100914.44;4998244;28;20425;-80
2023/03/25 06:16:21;;;;;;;21.00;7.30;;;;;;;41.06;34.85;100921.13;5009982;28;20417;-80
2023/03/25 06:18:55;;;;;;;14.60;8.10;;;;;;;40.91;35.21;100910.00;4996729;28;20523;-81
2023/03/25 06:21:31;;;;;;;24.63;9.20;;;;;;;41.03;34.87;100924.50;4996032;28;20440;-81
2023/03/25 06:24:00;;;;;;;29.47;12.00;;;;;;;41.07;35.15;100930.13;5011615;28;20498;-81
2023/03/25 06:26:26;;;;;;;41.90;24.10;;;;;;;41.00;35.33;100932.53;4996306;28;20451;-80
2023/03/25 06:28:53;;;;;;;46.93;31.60;;;;;;;40.96;35.41;100931.59;4996744;28;20523;-81
2023/03/25 06:31:26;;;;;;;29.60;27.20;;;;;;;40.94;35.26;100940.06;4997110;28;20820;-80
2023/03/25 06:33:53;;;;;;;33.63;24.70;;;;;;;40.97;35.40;100933.19;4994000;28;20429;-80
2023/03/25 06:36:19;;;;;;;36.70;27.17;;;;;;;41.00;35.22;100946.13;4996801;28;20468;-80
2023/03/25 06:38:47;;;;;;;44.90;19.70;;;;;;;41.04;35.25;100952.53;4995661;28;20477;-81
2023/03/25 06:41:16;;;;;;;29.03;15.70;;;;;;;41.05;34.83;100948.66;5001861;28;20424;-80
2023/03/25 08:35:50;;;;;;;;;;;;;;;;;;;;;
2023/03/25 08:39:10;;;;;;;;;;;;;;;;;;;;;
2023/03/25 08:41:58;;;;;;;;;;;;;;;;;;;;;
2023/03/25 08:52:28;;;;;;;23.93;6.70;;;;;;;41.46;34.64;101152.25;6092396;23;20376;-90
2023/03/25 08:56:35;;;;;;;;;;;;;;;;;;;;;
2023/03/25 09:02:38;;;;;;;26.00;5.50;;;;;;;41.34;34.82;101166.53;6095778;23;20470;-91
2023/03/25 09:05:05;;;;;;;25.67;7.37;;;;;;;41.40;34.51;101161.72;6094728;23;20430;-93
2023/03/25 09:07:31;;;;;;;13.23;6.33;;;;;;;41.42;34.12;101164.09;6223095;23;20473;-90
2023/03/25 09:09:57;;;;;;;12.13;5.13;;;;;;;41.37;34.30;101167.00;6244321;23;20417;-90
2023/03/25 09:12:22;;;;;;;13.87;7.03;;;;;;;41.42;34.48;101162.19;6245622;23;20418;-90
2023/03/25 09:14:48;;;;;;;15.13;7.23;;;;;;;41.44;33.95;101172.78;6244293;23;20215;-90
2023/03/25 09:17:14;;;;;;;13.90;6.13;;;;;;;41.26;34.51;101163.81;6244728;23;20233;-89
2023/03/25 09:19:40;;;;;;;18.40;6.57;;;;;;;41.26;34.65;101170.03;6244815;23;20179;-91
2023/03/25 09:22:07;;;;;;;16.23;6.50;;;;;;;41.33;34.73;101161.41;6244408;23;20386;-90
2023/03/25 09:24:44;;;;;;;11.63;5.03;;;;;;;41.35;34.36;101175.50;6245118;23;20183;-90
2023/03/25 09:27:10;;;;;;;16.37;7.50;;;;;;;41.49;34.10;101175.31;6244768;23;20951;-90
2023/03/25 09:29:36;;;;;;;16.50;6.77;;;;;;;41.36;34.28;101187.97;6245420;23;20398;-91
2023/03/25 09:32:02;;;;;;;27.17;9.77;;;;;;;41.46;34.30;101171.31;6219734;23;20414;-90
2023/03/25 09:34:28;;;;;;;13.30;6.03;;;;;;;41.38;34.60;101174.06;6243918;23;20382;-88
2023/03/25 09:36:55;;;;;;;17.47;7.50;;;;;;;41.55;34.32;101176.72;6243999;23;20382;-87
2023/03/25 09:39:24;;;;;;;19.10;8.13;;;;;;;41.57;33.95;101175.31;6244152;23;20390;-88
2023/03/25 09:41:53;;;;;;;12.53;5.10;;;;;;;41.72;34.08;101179.41;6249182;23;20375;-92
2023/03/25 09:45:16;;;;;;;15.13;7.53;;;;;;;41.66;34.16;101156.19;6251700;23;20430;-85
2023/03/25 09:47:56;;;;;;;13.73;6.40;;;;;;;41.59;34.01;101158.63;6164921;23;20409;-88
2023/03/25 09:51:25;;;;;;;13.87;6.70;;;;;;;41.72;33.97;101171.25;6260445;23;20371;-96
2023/03/25 09:53:55;;;;;;;22.13;7.60;;;;;;;41.81;33.55;101172.06;6238444;23;20876;-91
2023/03/25 09:56:30;;;;;;;14.10;7.27;;;;;;;41.71;33.60;101164.19;6243431;23;20730;-91
2023/03/25 09:59:09;;;;;;;18.80;7.33;;;;;;;41.81;33.81;101172.06;6243107;23;20920;-90
2023/03/25 10:02:09;;;;;;;12.70;6.30;;;;;;;41.84;33.73;101156.97;6245052;23;20390;-86
2023/03/25 10:05:40;;;;;;;17.43;6.60;;;;;;;41.96;33.38;101162.53;6244786;23;20429;-88
2023/03/25 10:08:31;;;;;;;15.87;6.73;;;;;;;41.93;33.28;101162.38;6133587;23;20383;-88
2023/03/25 10:11:54;;;;;;;18.43;6.33;;;;;;;41.95;33.39;101168.31;6231228;23;20500;-91
2023/03/25 10:35:53;;;;;;;14.50;6.80;;;;;;;41.97;33.58;101150.50;6122563;23;20715;-90
2023/03/25 10:46:06;;;;;;;;;;;;;;;;;;;;;
2023/03/25 10:56:27;;;;;;;10.20;4.90;;;;;;;42.02;33.71;101127.72;6007343;23;20385;-90
2023/03/25 10:58:59;;;;;;;16.43;6.67;;;;;;;41.99;33.56;101115.56;6034785;23;20406;-91
2023/03/25 11:01:42;;;;;;;14.03;6.60;;;;;;;41.95;33.68;101122.78;6145959;23;20389;-89
2023/03/25 11:04:15;;;;;;;18.30;6.17;;;;;;;42.04;33.71;101125.44;6192943;23;20430;-91
2023/03/25 11:07:43;;;;;;;23.03;9.30;;;;;;;42.10;33.62;101115.97;6241478;23;20802;-95
2023/03/25 11:10:47;;;;;;;22.90;7.43;;;;;;;42.08;33.70;101119.03;6105771;23;20394;-92
2023/03/25 11:32:17;;;;;;;13.87;5.80;;;;;;;42.36;33.11;101099.50;6015330;23;20416;-92
2023/03/25 11:34:47;;;;;;;14.93;6.27;;;;;;;42.36;33.46;101081.19;6114326;23;20419;-83
2023/03/25 11:37:19;;;;;;;18.77;5.90;;;;;;;42.41;33.59;101091.09;6217202;23;20433;-88
2023/03/25 11:39:54;;;;;;;18.43;6.50;;;;;;;42.48;33.60;101085.94;6219911;23;20410;-87
2023/03/25 11:43:07;;;;;;;10.93;5.33;;;;;;;42.47;33.37;101078.84;6217485;23;20396;-86
2023/03/25 11:45:44;;;;;;;22.83;6.10;;;;;;;42.45;33.42;101069.41;6218091;23;20469;-86
2023/03/25 11:48:19;;;;;;;17.63;6.07;;;;;;;42.49;33.56;101075.81;6253516;23;20389;-89
2023/03/25 11:50:55;;;;;;;12.70;6.90;;;;;;;42.47;33.30;101072.59;6245156;23;20424;-87
2023/03/25 11:53:26;;;;;;;12.70;6.70;;;;;;;42.50;33.05;101069.22;6219818;23;20391;-88
2023/03/25 11:56:03;;;;;;;12.53;6.00;;;;;;;42.45;33.02;101064.75;6244310;23;20478;-86
2023/03/25 11:58:33;;;;;;;15.83;6.17;;;;;;;42.40;33.37;101057.56;6217976;23;20750;-93
2023/03/25 12:01:28;;;;;;;15.63;6.30;;;;;;;42.46;33.09;101060.09;6218219;23;20390;-89
2023/03/25 12:04:13;;;;;;;16.80;8.83;;;;;;;42.51;33.25;101057.19;6190780;23;20386;-91
2023/03/25 12:07:00;;;;;;;18.40;8.40;;;;;;;42.53;33.04;101049.44;6220851;23;20738;-89
2023/03/25 12:09:30;;;;;;;14.37;6.20;;;;;;;42.48;33.37;101041.47;6244987;23;20413;-89
2023/03/25 12:12:25;;;;;;;12.70;8.30;;;;;;;42.40;33.24;101048.59;6219042;23;20390;-88
2023/03/25 14:56:32;;;;;;;11.17;5.43;;;;;;;53.35;18.27;100831.50;6242311;22;20446;-85
2023/03/25 14:59:06;;;;;;;12.80;6.30;;;;;;;53.50;19.08;100826.56;6192471;23;20445;-85
2023/03/25 15:01:36;;;;;;;12.37;7.93;;;;;;;54.13;17.84;100826.03;6186320;23;20412;-86
2023/03/25 15:04:29;;;;;;;12.53;7.27;;;;;;;54.78;17.19;100826.47;6186093;23;20410;-90
2023/03/25 15:06:57;;;;;;;16.97;6.40;;;;;;;54.79;17.32;100824.47;6188577;23;20378;-88
2023/03/25 15:09:29;;;;;;;13.10;6.37;;;;;;;55.05;16.44;100831.84;6187713;23;20378;-90
2023/03/25 15:12:03;;;;;;;21.37;10.03;;;;;;;55.42;16.47;100827.13;6188032;23;20409;-89
2023/03/25 15:14:40;;;;;;;14.10;7.70;;;;;;;56.12;15.39;100825.91;6214952;23;20358;-90
2023/03/25 15:17:10;;;;;;;14.97;7.03;;;;;;;56.85;15.01;100813.19;6187511;23;20396;-89
2023/03/25 15:20:14;;;;;;;13.93;6.57;;;;;;;57.80;13.89;100819.06;6186641;23;20398;-89
2023/03/25 15:22:40;;;;;;;16.63;6.03;;;;;;;58.74;13.99;100812.59;6040501;23;20390;-89
2023/03/25 15:25:24;;;;;;;18.50;8.50;;;;;;;59.41;12.23;100814.84;6160998;23;20419;-90
2023/03/25 15:28:02;;;;;;;14.63;7.10;;;;;;;60.18;12.81;100823.25;6213177;23;20980;-89
2023/03/25 15:30:43;;;;;;;15.13;5.77;;;;;;;60.78;11.92;100827.41;6187844;23;20443;-89
2023/03/25 15:33:34;;;;;;;11.63;5.13;;;;;;;61.33;11.64;100824.41;6189150;23;20379;-90
2023/03/25 15:40:08;;;;;;;11.30;5.77;;;;;;;61.92;11.14;100824.72;6180802;23;20382;-96
2023/03/25 15:42:53;;;;;;;13.47;6.57;;;;;;;61.54;11.39;100822.59;6173360;23;20378;-96
2023/03/25 15:45:31;;;;;;;12.43;6.47;;;;;;;61.23;11.59;100815.28;6194236;23;20407;-90
2023/03/25 15:48:19;;;;;;;19.40;5.70;;;;;;;61.19;11.23;100817.47;6196266;23;20425;-92
2023/03/25 15:51:09;;;;;;;17.60;7.27;;;;;;;61.29;11.74;100817.44;6201285;23;20700;-89
2023/03/25 15:53:43;;;;;;;13.47;5.60;;;;;;;61.14;11.54;100811.72;6193584;23;20374;-89
2023/03/25 15:56:22;;;;;;;14.70;5.63;;;;;;;61.26;11.23;100814.31;6182715;23;20431;-88
2023/03/25 15:58:54;;;;;;;10.00;5.10;;;;;;;61.42;11.21;100806.78;6185661;23;20407;-89
2023/03/25 16:01:26;;;;;;;10.87;6.60;;;;;;;61.33;11.43;100812.41;6187752;23;20383;-90
2023/03/25 16:04:18;;;;;;;14.57;8.57;;;;;;;60.84;11.79;100810.72;6214430;23;20366;-89
2023/03/25 16:06:49;;;;;;;9.67;5.53;;;;;;;59.97;12.23;100803.78;6187396;23;20399;-89
2023/03/25 16:09:27;;;;;;;11.70;5.57;;;;;;;57.59;14.48;100798.25;6189529;23;20414;-87
2023/03/25 16:12:01;;;;;;;9.83;5.13;;;;;;;55.17;16.26;100792.31;6216540;23;20362;-86
2023/03/25 16:14:32;;;;;;;14.40;6.97;;;;;;;53.52;17.61;100782.53;6189477;23;20398;-90
2023/03/25 16:17:02;;;;;;;13.00;5.57;;;;;;;52.44;18.63;100792.53;6189775;23;20386;-88
2023/03/25 16:19:40;;;;;;;11.60;6.23;;;;;;;51.50;19.43;100783.34;6216370;23;20393;-86
2023/03/25 16:22:17;;;;;;;13.10;6.07;;;;;;;50.87;20.12;100783.22;6189417;23;20742;-86
2023/03/25 16:24:50;;;;;;;9.90;5.60;;;;;;;50.51;21.10;100783.25;6189528;23;20418;-90
2023/03/25 16:27:23;;;;;;;15.53;6.77;;;;;;;50.77;20.80;100784.00;6188173;23;20382;-86
2023/03/25 16:29:54;;;;;;;20.60;6.60;;;;;;;52.26;19.11;100784.41;6188729;23;20382;-91
2023/03/25 16:32:23;;;;;;;17.63;6.87;;;;;;;53.59;17.70;100785.22;6189435;23;20378;-90
2023/03/25 16:34:50;;;;;;;14.73;6.10;;;;;;;54.34;16.73;100797.13;6189305;23;20371;-88
2023/03/25 16:37:17;;;;;;;19.60;8.70;;;;;;;54.51;17.25;100803.56;6189376;23;20453;-88
2023/03/25 16:39:50;;;;;;;13.87;6.20;;;;;;;54.37;16.94;100794.25;6187067;23;20385;-89
2023/03/25 16:42:25;;;;;;;12.60;5.40;;;;;;;53.93;17.65;100795.41;6187045;23;20382;-89
2023/03/25 16:44:53;;;;;;;23.40;7.83;;;;;;;52.88;18.76;100800.78;6185100;23;20425;-89
2023/03/25 16:47:20;;;;;;;15.70;7.00;;;;;;;51.27;20.34;100804.00;6211861;23;20367;-89
2023/03/25 16:49:48;;;;;;;14.00;7.03;;;;;;;50.17;21.38;100802.22;6211497;23;20387;-90
2023/03/25 16:52:22;;;;;;;11.80;5.70;;;;;;;49.48;22.20;100799.72;6185109;23;20374;-89
2023/03/25 16:54:51;;;;;;;11.33;6.03;;;;;;;49.38;22.61;100790.19;6186829;23;20429;-89
2023/03/25 16:57:26;;;;;;;15.17;6.30;;;;;;;49.26;22.42;100789.75;6186899;23;20763;-89
2023/03/25 16:59:53;;;;;;;17.47;6.30;;;;;;;49.36;22.84;100800.81;6215997;23;20790;-89
2023/03/25 17:02:31;;;;;;;14.07;5.70;;;;;;;49.10;22.55;100804.63;6188883;23;20410;-88
2023/03/25 17:05:24;;;;;;;20.13;7.40;;;;;;;48.89;23.09;100807.28;6189010;23;20418;-87
2023/03/25 17:08:02;;;;;;;18.70;6.77;;;;;;;48.42;23.51;100804.19;6189037;23;20378;-87
2023/03/25 17:10:31;;;;;;;14.03;6.80;;;;;;;48.00;24.25;100812.84;6188905;23;20437;-89
2023/03/25 17:13:07;;;;;;;21.70;8.40;;;;;;;47.37;24.77;100819.97;6188833;23;20375;-89
2023/03/25 17:15:34;;;;;;;13.53;6.53;;;;;;;46.99;25.11;100817.47;6188773;23;20418;-88
2023/03/25 17:18:03;;;;;;;15.27;7.63;;;;;;;46.63;25.77;100818.88;6188486;23;20854;-87
2023/03/25 17:54:42;;;;;;;14.07;6.10;;;;;;;43.18;31.38;100826.78;4437613;27;19696088;-85
2023/03/25 17:57:26;;;;;;;15.30;6.10;;;;;;;43.24;31.07;100810.97;5122628;28;20204;-87
2023/03/25 18:00:27;;;;;;;17.43;5.97;;;;;;;43.26;30.95;100804.00;5116745;28;20426;-84
2023/03/25 18:02:54;;;;;;;12.30;5.80;;;;;;;43.28;31.48;100844.59;5125196;27;20408;-83
2023/03/25 18:05:20;;;;;;;14.07;6.90;;;;;;;43.42;31.27;100851.34;5121474;28;20419;-86
2023/03/25 18:07:46;;;;;;;28.43;13.10;;;;;;;43.51;30.93;100842.19;5116249;28;20792;-85
2023/03/25 18:10:18;;;;;;;23.00;12.30;;;;;;;43.48;31.38;100848.38;5126337;28;20920;-85
2023/03/25 18:12:44;;;;;;;19.50;13.27;;;;;;;43.42;31.00;100843.13;5129180;28;20457;-82
2023/03/25 18:15:11;;;;;;;26.20;12.33;;;;;;;43.51;30.79;100853.13;5130022;28;20422;-85
2023/03/25 18:17:37;;;;;;;28.20;11.67;;;;;;;43.45;31.29;100858.81;5129569;28;20845;-85